sensor_id;sensor_type;location;lat;lon;timestamp;pressure;altitude;pressure_sealevel;temperature;humidity
1207;BME280;593;53.184;8.216;2023-08-06T00:00:45;100331.75;;;18.07;100.00
1207;BME280;593;53.184;8.216;2023-08-06T00:03:10;100336.44;;;18.07;100.00
1207;BME280;593;53.184;8.216;2023-08-06T00:05:36;100332.09;;;18.06;100.00
1207;BME280;593;53.184;8.216;2023-08-06T00:08:01;100331.28;;;18.05;100.00
1207;BME280;593;53.184;8.216;2023-08-06T00:10:27;100323.38;;;18.04;100.00
1207;BME280;593;53.184;8.216;2023-08-06T00:12:53;100321.75;;;18.03;100.00
1207;BME280;593;53.184;8.216;2023-08-06T00:15:18;100325.31;;;18.03;100.00
1207;BME280;593;53.184;8.216;2023-08-06T00:17:43;100318.19;;;18.02;100.00
1207;BME280;593;53.184;8.216;2023-08-06T00:20:09;100316.63;;;18.01;100.00
1207;BME280;593;53.184;8.216;2023-08-06T00:22:35;100321.31;;;18.01;100.00
1207;BME280;593;53.184;8.216;2023-08-06T00:25:02;100313.38;;;17.99;100.00
1207;BME280;593;53.184;8.216;2023-08-06T00:27:27;100309.03;;;17.98;100.00
1207;BME280;593;53.184;8.216;2023-08-06T00:29:53;100313.72;;;17.98;100.00
1207;BME280;593;53.184;8.216;2023-08-06T00:32:19;100299.72;;;17.90;100.00
1207;BME280;593;53.184;8.216;2023-08-06T00:34:44;100289.38;;;17.87;100.00
1207;BME280;593;53.184;8.216;2023-08-06T00:37:09;100304.06;;;17.91;100.00
1207;BME280;593;53.184;8.216;2023-08-06T00:39:35;100313.25;;;17.96;100.00
1207;BME280;593;53.184;8.216;2023-08-06T00:42:00;100307.75;;;17.96;100.00
1207;BME280;593;53.184;8.216;2023-08-06T00:44:25;100316.03;;;17.96;100.00
1207;BME280;593;53.184;8.216;2023-08-06T00:46:51;100312.47;;;17.95;100.00
1207;BME280;593;53.184;8.216;2023-08-06T00:49:16;100303.75;;;17.93;100.00
1207;BME280;593;53.184;8.216;2023-08-06T00:51:42;100306.72;;;17.88;100.00
1207;BME280;593;53.184;8.216;2023-08-06T00:54:09;100305.22;;;17.90;100.00
1207;BME280;593;53.184;8.216;2023-08-06T00:56:35;100314.28;;;17.91;100.00
1207;BME280;593;53.184;8.216;2023-08-06T00:59:04;100307.16;;;17.90;100.00
1207;BME280;593;53.184;8.216;2023-08-06T01:01:30;100311.06;;;17.89;100.00
1207;BME280;593;53.184;8.216;2023-08-06T01:03:56;100310.28;;;17.88;100.00
1207;BME280;593;53.184;8.216;2023-08-06T01:06:34;100308.66;;;17.87;100.00
1207;BME280;593;53.184;8.216;2023-08-06T01:09:11;100304.28;;;17.86;100.00
1207;BME280;593;53.184;8.216;2023-08-06T01:12:13;100297.19;;;17.85;100.00
1207;BME280;593;53.184;8.216;2023-08-06T01:17:09;100298.31;;;17.84;100.00
1207;BME280;593;53.184;8.216;2023-08-06T01:19:38;100290.06;;;17.84;100.00
1207;BME280;593;53.184;8.216;2023-08-06T01:22:03;100286.50;;;17.84;100.00
1207;BME280;593;53.184;8.216;2023-08-06T01:24:29;100289.59;;;17.82;100.00
1207;BME280;593;53.184;8.216;2023-08-06T01:27:06;100286.84;;;17.82;100.00
1207;BME280;593;53.184;8.216;2023-08-06T01:32:24;100276.41;;;17.76;100.00
1207;BME280;593;53.184;8.216;2023-08-06T01:34:52;100282.47;;;17.81;100.00
1207;BME280;593;53.184;8.216;2023-08-06T01:37:19;100273.44;;;17.81;100.00
1207;BME280;593;53.184;8.216;2023-08-06T01:39:44;100272.63;;;17.80;100.00
1207;BME280;593;53.184;8.216;2023-08-06T01:42:10;100270.69;;;17.81;100.00
1207;BME280;593;53.184;8.216;2023-08-06T01:44:35;100273.44;;;17.81;100.00
1207;BME280;593;53.184;8.216;2023-08-06T01:47:01;100265.19;;;17.81;100.00
1207;BME280;593;53.184;8.216;2023-08-06T01:49:26;100267.94;;;17.81;100.00
1207;BME280;593;53.184;8.216;2023-08-06T01:51:51;100263.56;;;17.80;100.00
1207;BME280;593;53.184;8.216;2023-08-06T01:54:17;100265.50;;;17.79;100.00
1207;BME280;593;53.184;8.216;2023-08-06T01:56:42;100263.56;;;17.80;100.00
1207;BME280;593;53.184;8.216;2023-08-06T01:59:07;100260.00;;;17.79;100.00
1207;BME280;593;53.184;8.216;2023-08-06T02:01:33;100261.94;;;17.79;100.00
1207;BME280;593;53.184;8.216;2023-08-06T02:03:58;100263.44;;;17.76;100.00
1207;BME280;593;53.184;8.216;2023-08-06T02:06:23;100263.44;;;17.76;100.00
1207;BME280;593;53.184;8.216;2023-08-06T02:08:49;100257.94;;;17.76;100.00
1207;BME280;593;53.184;8.216;2023-08-06T02:11:14;100250.84;;;17.75;100.00
1207;BME280;593;53.184;8.216;2023-08-06T02:13:39;100251.97;;;17.74;100.00
1207;BME280;593;53.184;8.216;2023-08-06T02:16:07;100249.22;;;17.74;100.00
1207;BME280;593;53.184;8.216;2023-08-06T02:18:33;100258.28;;;17.75;100.00
1207;BME280;593;53.184;8.216;2023-08-06T02:20:59;100251.97;;;17.74;100.00
1207;BME280;593;53.184;8.216;2023-08-06T02:23:25;100251.16;;;17.74;100.00
1207;BME280;593;53.184;8.216;2023-08-06T02:26:01;100251.50;;;17.72;100.00
1207;BME280;593;53.184;8.216;2023-08-06T02:28:28;100227.84;;;17.59;100.00
1207;BME280;593;53.184;8.216;2023-08-06T02:30:53;100252.66;;;17.71;100.00
1207;BME280;593;53.184;8.216;2023-08-06T02:33:19;100251.06;;;17.70;100.00
1207;BME280;593;53.184;8.216;2023-08-06T02:35:44;100249.13;;;17.71;100.00
1207;BME280;593;53.184;8.216;2023-08-06T02:38:10;100244.38;;;17.71;100.00
1207;BME280;593;53.184;8.216;2023-08-06T02:40:35;100243.63;;;17.71;100.00
1207;BME280;593;53.184;8.216;2023-08-06T02:43:00;100235.69;;;17.69;100.00
1207;BME280;593;53.184;8.216;2023-08-06T02:45:25;100240.06;;;17.70;100.00
1207;BME280;593;53.184;8.216;2023-08-06T02:47:51;100239.25;;;17.70;100.00
1207;BME280;593;53.184;8.216;2023-08-06T02:50:16;100231.34;;;17.68;100.00
1207;BME280;593;53.184;8.216;2023-08-06T02:52:41;100230.53;;;17.68;100.00
1207;BME280;593;53.184;8.216;2023-08-06T02:55:07;100233.59;;;17.66;100.00
1207;BME280;593;53.184;8.216;2023-08-06T02:57:32;100228.09;;;17.66;100.00
1207;BME280;593;53.184;8.216;2023-08-06T02:59:58;100225.34;;;17.66;100.00
1207;BME280;593;53.184;8.216;2023-08-06T03:02:23;100225.69;;;17.65;100.00
1207;BME280;593;53.184;8.216;2023-08-06T03:04:48;100224.09;;;17.64;100.00
1207;BME280;593;53.184;8.216;2023-08-06T03:07:14;100212.31;;;17.63;100.00
1207;BME280;593;53.184;8.216;2023-08-06T03:09:39;100212.31;;;17.63;100.00
1207;BME280;593;53.184;8.216;2023-08-06T03:12:05;100189.25;;;17.56;100.00
1207;BME280;593;53.184;8.216;2023-08-06T03:14:30;100201.63;;;17.62;100.00
1207;BME280;593;53.184;8.216;2023-08-06T03:16:55;100214.25;;;17.63;100.00
1207;BME280;593;53.184;8.216;2023-08-06T03:19:21;100210.69;;;17.62;100.00
1207;BME280;593;53.184;8.216;2023-08-06T03:21:46;100213.44;;;17.62;100.00
1207;BME280;593;53.184;8.216;2023-08-06T03:24:13;100205.19;;;17.62;100.00
1207;BME280;593;53.184;8.216;2023-08-06T03:26:39;100194.19;;;17.62;100.00
1207;BME280;593;53.184;8.216;2023-08-06T03:29:04;100179.84;;;17.57;100.00
1207;BME280;593;53.184;8.216;2023-08-06T03:31:30;100189.34;;;17.59;100.00
1207;BME280;593;53.184;8.216;2023-08-06T03:33:55;100183.03;;;17.59;100.00
1207;BME280;593;53.184;8.216;2023-08-06T03:36:20;100192.09;;;17.59;100.00
1207;BME280;593;53.184;8.216;2023-08-06T03:38:46;100182.25;;;17.58;100.00
1207;BME280;593;53.184;8.216;2023-08-06T03:41:12;100178.69;;;17.58;100.00
1207;BME280;593;53.184;8.216;2023-08-06T03:43:37;100175.50;;;17.56;100.00
1207;BME280;593;53.184;8.216;2023-08-06T03:46:02;100175.50;;;17.56;100.00
1207;BME280;593;53.184;8.216;2023-08-06T03:48:28;100161.44;;;17.49;100.00
1207;BME280;593;53.184;8.216;2023-08-06T03:50:53;100172.59;;;17.52;100.00
1207;BME280;593;53.184;8.216;2023-08-06T03:53:19;100169.84;;;17.52;100.00
1207;BME280;593;53.184;8.216;2023-08-06T03:55:44;100149.53;;;17.45;100.00
1207;BME280;593;53.184;8.216;2023-08-06T03:58:09;100163.06;;;17.50;100.00
1207;BME280;593;53.184;8.216;2023-08-06T04:00:35;100159.50;;;17.49;100.00
1207;BME280;593;53.184;8.216;2023-08-06T04:03:00;100160.19;;;17.46;100.00
1207;BME280;593;53.184;8.216;2023-08-06T04:05:25;100164.53;;;17.47;100.00
1207;BME280;593;53.184;8.216;2023-08-06T04:07:51;100166.03;;;17.45;100.00
1207;BME280;593;53.184;8.216;2023-08-06T04:10:16;100165.22;;;17.44;100.00
1207;BME280;593;53.184;8.216;2023-08-06T04:12:41;100163.63;;;17.43;100.00
1207;BME280;593;53.184;8.216;2023-08-06T04:15:07;100168.31;;;17.43;100.00
1207;BME280;593;53.184;8.216;2023-08-06T04:17:32;100162.00;;;17.42;100.00
1207;BME280;593;53.184;8.216;2023-08-06T04:19:58;100161.56;;;17.40;100.00
1207;BME280;593;53.184;8.216;2023-08-06T04:22:24;100168.19;;;17.39;100.00
1207;BME280;593;53.184;8.216;2023-08-06T04:24:50;100166.59;;;17.38;100.00
1207;BME280;593;53.184;8.216;2023-08-06T04:27:16;100172.09;;;17.38;100.00
1207;BME280;593;53.184;8.216;2023-08-06T04:29:42;100174.72;;;17.35;100.00
1207;BME280;593;53.184;8.216;2023-08-06T04:32:09;100172.41;;;17.37;100.00
1207;BME280;593;53.184;8.216;2023-08-06T04:34:36;100171.16;;;17.34;100.00
1207;BME280;593;53.184;8.216;2023-08-06T04:37:02;100173.91;;;17.34;100.00
1207;BME280;593;53.184;8.216;2023-08-06T04:39:27;100171.50;;;17.33;100.00
1207;BME280;593;53.184;8.216;2023-08-06T04:41:53;100177.00;;;17.33;100.00
1207;BME280;593;53.184;8.216;2023-08-06T04:44:18;100175.38;;;17.31;100.00
1207;BME280;593;53.184;8.216;2023-08-06T04:46:44;100175.38;;;17.31;100.00
1207;BME280;593;53.184;8.216;2023-08-06T04:49:09;100180.06;;;17.31;100.00
1207;BME280;593;53.184;8.216;2023-08-06T04:51:35;100180.06;;;17.31;100.00
1207;BME280;593;53.184;8.216;2023-08-06T04:54:00;100179.28;;;17.30;100.00
1207;BME280;593;53.184;8.216;2023-08-06T04:56:26;100163.69;;;17.22;100.00
1207;BME280;593;53.184;8.216;2023-08-06T04:58:52;100171.38;;;17.29;100.00
1207;BME280;593;53.184;8.216;2023-08-06T05:01:17;100167.34;;;17.26;100.00
1207;BME280;593;53.184;8.216;2023-08-06T05:03:42;100165.53;;;17.30;100.00
1207;BME280;593;53.184;8.216;2023-08-06T05:06:08;100169.44;;;17.29;100.00
1207;BME280;593;53.184;8.216;2023-08-06T05:08:33;100144.66;;;17.17;100.00
1207;BME280;593;53.184;8.216;2023-08-06T05:10:58;100158.28;;;17.26;100.00
1207;BME280;593;53.184;8.216;2023-08-06T05:13:24;100169.88;;;17.31;100.00
1207;BME280;593;53.184;8.216;2023-08-06T05:15:50;100161.53;;;17.28;100.00
1207;BME280;593;53.184;8.216;2023-08-06T05:18:16;100169.06;;;17.31;100.00
1207;BME280;593;53.184;8.216;2023-08-06T05:20:42;100173.44;;;17.32;100.00
1207;BME280;593;53.184;8.216;2023-08-06T05:23:08;100179.75;;;17.33;100.00
1207;BME280;593;53.184;8.216;2023-08-06T05:25:37;100177.81;;;17.33;100.00
1207;BME280;593;53.184;8.216;2023-08-06T05:28:03;100167.34;;;17.26;100.00
1207;BME280;593;53.184;8.216;2023-08-06T05:30:28;100181.84;;;17.36;100.00
1207;BME280;593;53.184;8.216;2023-08-06T05:32:54;100183.09;;;17.38;100.00
1207;BME280;593;53.184;8.216;2023-08-06T05:35:21;100188.59;;;17.38;100.00
1207;BME280;593;53.184;8.216;2023-08-06T05:37:46;100179.19;;;17.39;100.00
1207;BME280;593;53.184;8.216;2023-08-06T05:40:11;100181.63;;;17.41;100.00
1207;BME280;593;53.184;8.216;2023-08-06T05:42:37;100178.88;;;17.41;100.00
1207;BME280;593;53.184;8.216;2023-08-06T05:45:02;100179.66;;;17.41;100.00
1207;BME280;593;53.184;8.216;2023-08-06T05:47:28;100184.00;;;17.42;100.00
1207;BME280;593;53.184;8.216;2023-08-06T05:49:53;100183.19;;;17.42;100.00
1207;BME280;593;53.184;8.216;2023-08-06T05:52:19;100181.72;;;17.44;100.00
1207;BME280;593;53.184;8.216;2023-08-06T05:54:44;100175.91;;;17.46;100.00
1207;BME280;593;53.184;8.216;2023-08-06T05:57:09;100184.94;;;17.46;100.00
1207;BME280;593;53.184;8.216;2023-08-06T05:59:35;100180.25;;;17.47;100.00
1207;BME280;593;53.184;8.216;2023-08-06T06:02:00;100168.31;;;17.43;100.00
1207;BME280;593;53.184;8.216;2023-08-06T06:04:25;100179.22;;;17.51;100.00
1207;BME280;593;53.184;8.216;2023-08-06T06:06:51;100180.03;;;17.52;100.00
1207;BME280;593;53.184;8.216;2023-08-06T06:09:16;100180.50;;;17.54;100.00
1207;BME280;593;53.184;8.216;2023-08-06T06:11:41;100181.00;;;17.56;100.00
1207;BME280;593;53.184;8.216;2023-08-06T06:14:07;100180.19;;;17.55;100.00
1207;BME280;593;53.184;8.216;2023-08-06T06:16:32;100187.75;;;17.58;100.00
1207;BME280;593;53.184;8.216;2023-08-06T06:18:57;100190.16;;;17.60;100.00
1207;BME280;593;53.184;8.216;2023-08-06T06:21:24;100179.03;;;17.56;100.00
1207;BME280;593;53.184;8.216;2023-08-06T06:23:49;100187.53;;;17.63;100.00
1207;BME280;593;53.184;8.216;2023-08-06T06:26:19;100183.63;;;17.64;100.00
1207;BME280;593;53.184;8.216;2023-08-06T06:28:44;100187.19;;;17.65;100.00
1207;BME280;593;53.184;8.216;2023-08-06T06:31:10;100183.31;;;17.66;100.00
1207;BME280;593;53.184;8.216;2023-08-06T06:33:36;100182.16;;;17.67;100.00
1207;BME280;593;53.184;8.216;2023-08-06T06:36:01;100186.16;;;17.69;100.00
1207;BME280;593;53.184;8.216;2023-08-06T06:38:29;100186.97;;;17.70;100.00
1207;BME280;593;53.184;8.216;2023-08-06T06:40:56;100174.25;;;17.65;100.00
1207;BME280;593;53.184;8.216;2023-08-06T06:43:22;100187.09;;;17.73;100.00
1207;BME280;593;53.184;8.216;2023-08-06T06:45:52;100187.56;;;17.75;100.00
1207;BME280;593;53.184;8.216;2023-08-06T06:48:17;100185.13;;;17.74;100.00
1207;BME280;593;53.184;8.216;2023-08-06T06:50:43;100183.31;;;17.78;100.00
1207;BME280;593;53.184;8.216;2023-08-06T06:53:12;100182.97;;;17.79;100.00
1207;BME280;593;53.184;8.216;2023-08-06T06:55:37;100182.28;;;17.82;100.00
1207;BME280;593;53.184;8.216;2023-08-06T06:58:02;100188.59;;;17.83;100.00
1207;BME280;593;53.184;8.216;2023-08-06T07:00:27;100190.19;;;17.84;100.00
1207;BME280;593;53.184;8.216;2023-08-06T07:02:53;100192.25;;;17.87;100.00
1207;BME280;593;53.184;8.216;2023-08-06T07:05:18;100189.97;;;17.89;100.00
1207;BME280;593;53.184;8.216;2023-08-06T07:07:44;100193.97;;;17.91;100.00
1207;BME280;593;53.184;8.216;2023-08-06T07:10:09;100194.94;;;17.96;100.00
1207;BME280;593;53.184;8.216;2023-08-06T07:12:34;100196.19;;;17.98;100.00
1207;BME280;593;53.184;8.216;2023-08-06T07:15:08;100196.28;;;18.02;100.00
1207;BME280;593;53.184;8.216;2023-08-06T07:17:34;100192.41;;;18.03;100.00
1207;BME280;593;53.184;8.216;2023-08-06T07:19:59;100198.03;;;18.06;100.00
1207;BME280;593;53.184;8.216;2023-08-06T07:22:24;100196.19;;;18.10;100.00
1207;BME280;593;53.184;8.216;2023-08-06T07:24:50;100190.00;;;18.13;100.00
1207;BME280;593;53.184;8.216;2023-08-06T07:27:15;100195.59;;;18.17;100.00
1207;BME280;593;53.184;8.216;2023-08-06T07:29:40;100205.56;;;18.21;100.00
1207;BME280;593;53.184;8.216;2023-08-06T07:32:07;100184.94;;;18.15;100.00
1207;BME280;593;53.184;8.216;2023-08-06T07:34:32;100203.06;;;18.28;100.00
1207;BME280;593;53.184;8.216;2023-08-06T07:36:58;100198.47;;;18.32;100.00
1207;BME280;593;53.184;8.216;2023-08-06T07:39:23;100201.00;;;18.37;100.00
1207;BME280;593;53.184;8.216;2023-08-06T07:41:49;100208.56;;;18.40;100.00
1207;BME280;593;53.184;8.216;2023-08-06T07:44:14;100211.41;;;18.44;100.00
1207;BME280;593;53.184;8.216;2023-08-06T07:46:40;100205.25;;;18.47;100.00
1207;BME280;593;53.184;8.216;2023-08-06T07:49:05;100210.88;;;18.50;100.00
1207;BME280;593;53.184;8.216;2023-08-06T07:51:30;100214.22;;;18.56;100.00
1207;BME280;593;53.184;8.216;2023-08-06T07:53:56;100213.16;;;18.61;100.00
1207;BME280;593;53.184;8.216;2023-08-06T07:56:21;100206.63;;;18.65;100.00
1207;BME280;593;53.184;8.216;2023-08-06T07:58:47;100214.19;;;18.68;100.00
1207;BME280;593;53.184;8.216;2023-08-06T08:01:12;100206.94;;;18.76;100.00
1207;BME280;593;53.184;8.216;2023-08-06T08:03:37;100210.94;;;18.78;100.00
1207;BME280;593;53.184;8.216;2023-08-06T08:06:03;100211.16;;;18.85;100.00
1207;BME280;593;53.184;8.216;2023-08-06T08:08:28;100214.47;;;18.91;100.00
1207;BME280;593;53.184;8.216;2023-08-06T08:10:54;100211.00;;;18.94;100.00
1207;BME280;593;53.184;8.216;2023-08-06T08:13:20;100216.19;;;18.95;100.00
1207;BME280;593;53.184;8.216;2023-08-06T08:15:45;100205.59;;;18.97;100.00
1207;BME280;593;53.184;8.216;2023-08-06T08:18:11;100216.16;;;19.07;100.00
1207;BME280;593;53.184;8.216;2023-08-06T08:20:36;100210.38;;;19.12;100.00
1207;BME280;593;53.184;8.216;2023-08-06T08:23:02;100212.44;;;19.15;100.00
1207;BME280;593;53.184;8.216;2023-08-06T08:25:28;100204.63;;;19.17;100.00
1207;BME280;593;53.184;8.216;2023-08-06T08:27:54;100197.72;;;19.24;100.00
1207;BME280;593;53.184;8.216;2023-08-06T08:30:19;100200.22;;;19.29;100.00
1207;BME280;593;53.184;8.216;2023-08-06T08:32:45;100196.28;;;19.30;100.00
1207;BME280;593;53.184;8.216;2023-08-06T08:35:10;100195.38;;;19.38;100.00
1207;BME280;593;53.184;8.216;2023-08-06T08:37:38;100195.56;;;19.45;100.00
1207;BME280;593;53.184;8.216;2023-08-06T08:40:04;100194.75;;;19.44;100.00
1207;BME280;593;53.184;8.216;2023-08-06T08:42:30;100194.22;;;19.54;100.00
1207;BME280;593;53.184;8.216;2023-08-06T08:44:56;100180.53;;;19.58;100.00
1207;BME280;593;53.184;8.216;2023-08-06T08:47:22;100179.84;;;19.61;100.00
1207;BME280;593;53.184;8.216;2023-08-06T08:49:48;100169.25;;;19.63;100.00
1207;BME280;593;53.184;8.216;2023-08-06T08:52:15;100164.16;;;19.65;100.00
1207;BME280;593;53.184;8.216;2023-08-06T08:54:43;100173.88;;;19.74;100.00
1207;BME280;593;53.184;8.216;2023-08-06T08:57:09;100176.34;;;19.79;100.00
1207;BME280;593;53.184;8.216;2023-08-06T08:59:34;100180.47;;;19.86;100.00
1207;BME280;593;53.184;8.216;2023-08-06T09:02:01;100159.19;;;19.86;100.00
1207;BME280;593;53.184;8.216;2023-08-06T09:04:28;100170.03;;;19.95;100.00
1207;BME280;593;53.184;8.216;2023-08-06T09:06:55;100162.28;;;20.00;100.00
1207;BME280;593;53.184;8.216;2023-08-06T09:09:33;100167.53;;;20.05;100.00
1207;BME280;593;53.184;8.216;2023-08-06T09:12:06;100170.03;;;20.10;100.00
1207;BME280;593;53.184;8.216;2023-08-06T09:14:35;100176.09;;;20.16;100.00
1207;BME280;593;53.184;8.216;2023-08-06T09:17:01;100175.00;;;20.20;100.00
1207;BME280;593;53.184;8.216;2023-08-06T09:19:26;100173.16;;;20.24;100.00
1207;BME280;593;53.184;8.216;2023-08-06T09:21:53;100174.88;;;20.29;100.00
1207;BME280;593;53.184;8.216;2023-08-06T09:24:20;100176.09;;;20.31;100.00
1207;BME280;593;53.184;8.216;2023-08-06T09:26:45;100175.03;;;20.36;100.00
1207;BME280;593;53.184;8.216;2023-08-06T09:29:11;100170.38;;;20.40;100.00
1207;BME280;593;53.184;8.216;2023-08-06T09:31:41;100169.66;;;20.43;100.00
1207;BME280;593;53.184;8.216;2023-08-06T09:34:20;100172.50;;;20.47;100.00
1207;BME280;593;53.184;8.216;2023-08-06T09:36:51;100170.63;;;20.51;100.00
1207;BME280;593;53.184;8.216;2023-08-06T09:39:27;100176.56;;;20.53;100.00
1207;BME280;593;53.184;8.216;2023-08-06T09:41:59;100168.38;;;20.56;100.00
1207;BME280;593;53.184;8.216;2023-08-06T09:44:26;100176.72;;;20.60;100.00
1207;BME280;593;53.184;8.216;2023-08-06T09:46:59;100175.66;;;20.64;100.00
1207;BME280;593;53.184;8.216;2023-08-06T09:49:40;100181.25;;;20.68;100.00
1207;BME280;593;53.184;8.216;2023-08-06T09:52:11;100180.53;;;20.71;100.00
1207;BME280;593;53.184;8.216;2023-08-06T09:54:37;100176.25;;;20.73;100.00
1207;BME280;593;53.184;8.216;2023-08-06T09:57:03;100160.75;;;20.69;100.00
1207;BME280;593;53.184;8.216;2023-08-06T09:59:29;100171.69;;;20.81;100.00
1207;BME280;593;53.184;8.216;2023-08-06T10:01:56;100173.25;;;20.82;100.00
1207;BME280;593;53.184;8.216;2023-08-06T10:04:21;100175.31;;;20.85;100.00
1207;BME280;593;53.184;8.216;2023-08-06T10:06:47;100173.44;;;20.89;100.00
1207;BME280;593;53.184;8.216;2023-08-06T10:09:14;100177.78;;;20.90;100.00
1207;BME280;593;53.184;8.216;2023-08-06T10:11:40;100173.56;;;20.96;100.00
1207;BME280;593;53.184;8.216;2023-08-06T10:16:52;100157.31;;;20.94;99.09
1207;BME280;593;53.184;8.216;2023-08-06T10:19:18;100160.25;;;21.01;98.00
1207;BME280;593;53.184;8.216;2023-08-06T10:24:54;100166.78;;;21.09;97.19
1207;BME280;593;53.184;8.216;2023-08-06T10:27:29;100166.78;;;21.09;97.19
1207;BME280;593;53.184;8.216;2023-08-06T10:30:09;100154.94;;;21.12;96.97
1207;BME280;593;53.184;8.216;2023-08-06T10:32:49;100159.41;;;21.17;97.02
1207;BME280;593;53.184;8.216;2023-08-06T10:35:47;100163.41;;;21.19;97.16
1207;BME280;593;53.184;8.216;2023-08-06T10:38:18;100158.66;;;21.20;95.82
1207;BME280;593;53.184;8.216;2023-08-06T10:43:37;100149.34;;;21.28;94.56
1207;BME280;593;53.184;8.216;2023-08-06T10:46:09;100149.41;;;21.31;93.29
1207;BME280;593;53.184;8.216;2023-08-06T10:48:41;100156.97;;;21.34;94.17
1207;BME280;593;53.184;8.216;2023-08-06T10:51:11;100153.91;;;21.39;96.36
1207;BME280;593;53.184;8.216;2023-08-06T10:53:38;100158.34;;;21.44;96.57
1207;BME280;593;53.184;8.216;2023-08-06T10:56:17;100157.25;;;21.48;96.92
1207;BME280;593;53.184;8.216;2023-08-06T10:58:44;100154.59;;;21.55;96.05
1207;BME280;593;53.184;8.216;2023-08-06T11:01:11;100157.06;;;21.60;95.66
1207;BME280;593;53.184;8.216;2023-08-06T11:03:37;100149.25;;;21.66;96.16
1207;BME280;593;53.184;8.216;2023-08-06T11:06:03;100157.28;;;21.74;96.36
1207;BME280;593;53.184;8.216;2023-08-06T11:08:34;100157.38;;;21.78;96.40
1207;BME280;593;53.184;8.216;2023-08-06T11:11:10;100152.31;;;21.84;96.07
1207;BME280;593;53.184;8.216;2023-08-06T11:13:38;100156.78;;;21.88;95.66
1207;BME280;593;53.184;8.216;2023-08-06T11:16:05;100148.97;;;21.94;96.85
1207;BME280;593;53.184;8.216;2023-08-06T11:18:31;100132.66;;;21.89;96.05
1207;BME280;593;53.184;8.216;2023-08-06T11:20:59;100147.03;;;21.98;95.85
1207;BME280;593;53.184;8.216;2023-08-06T11:23:26;100147.91;;;22.02;97.34
1207;BME280;593;53.184;8.216;2023-08-06T11:25:53;100148.69;;;22.02;96.33
1207;BME280;593;53.184;8.216;2023-08-06T11:28:19;100135.97;;;21.98;95.44
1207;BME280;593;53.184;8.216;2023-08-06T11:30:47;100149.59;;;22.10;94.61
1207;BME280;593;53.184;8.216;2023-08-06T11:33:12;100147.28;;;22.12;93.49
1207;BME280;593;53.184;8.216;2023-08-06T11:35:37;100143.75;;;22.15;92.28
1207;BME280;593;53.184;8.216;2023-08-06T11:38:03;100147.81;;;22.21;93.17
1207;BME280;593;53.184;8.216;2023-08-06T11:40:28;100149.78;;;22.20;91.51
1207;BME280;593;53.184;8.216;2023-08-06T11:42:54;100148.19;;;22.19;90.78
1207;BME280;593;53.184;8.216;2023-08-06T11:45:23;100155.38;;;22.24;89.77
1207;BME280;593;53.184;8.216;2023-08-06T11:47:50;100143.41;;;22.20;88.39
1207;BME280;593;53.184;8.216;2023-08-06T11:50:26;100145.19;;;22.31;91.61
1207;BME280;593;53.184;8.216;2023-08-06T11:52:59;100134.84;;;22.28;92.37
1207;BME280;593;53.184;8.216;2023-08-06T11:55:26;100141.28;;;22.36;91.78
1207;BME280;593;53.184;8.216;2023-08-06T11:57:57;100153.97;;;22.37;91.70
1207;BME280;593;53.184;8.216;2023-08-06T12:00:23;100150.13;;;22.45;92.69
1207;BME280;593;53.184;8.216;2023-08-06T12:02:50;100151.34;;;22.48;92.45
1207;BME280;593;53.184;8.216;2023-08-06T12:05:28;100144.25;;;22.50;92.45
1207;BME280;593;53.184;8.216;2023-08-06T12:07:58;100136.69;;;22.47;93.19
1207;BME280;593;53.184;8.216;2023-08-06T12:10:26;100147.09;;;22.54;91.75
1207;BME280;593;53.184;8.216;2023-08-06T12:12:51;100131.28;;;22.58;92.67
1207;BME280;593;53.184;8.216;2023-08-06T12:15:17;100132.50;;;22.60;93.58
1207;BME280;593;53.184;8.216;2023-08-06T12:17:42;100123.03;;;22.61;91.97
1207;BME280;593;53.184;8.216;2023-08-06T12:20:09;100120.31;;;22.65;92.52
1207;BME280;593;53.184;8.216;2023-08-06T12:22:35;100122.75;;;22.70;93.26
1207;BME280;593;53.184;8.216;2023-08-06T12:25:03;100131.56;;;22.75;95.35
1207;BME280;593;53.184;8.216;2023-08-06T12:27:32;100133.59;;;22.78;94.72
1207;BME280;593;53.184;8.216;2023-08-06T12:29:57;100131.22;;;22.80;95.96
1207;BME280;593;53.184;8.216;2023-08-06T12:32:22;100132.50;;;22.86;94.87
1207;BME280;593;53.184;8.216;2023-08-06T12:34:48;100127.78;;;22.90;95.30
1207;BME280;593;53.184;8.216;2023-08-06T12:37:13;100124.25;;;22.93;94.55
1207;BME280;593;53.184;8.216;2023-08-06T12:39:38;100124.66;;;22.95;95.30
1207;BME280;593;53.184;8.216;2023-08-06T12:42:05;100123.97;;;23.02;95.96
1207;BME280;593;53.184;8.216;2023-08-06T12:44:31;100126.41;;;23.07;96.13
1207;BME280;593;53.184;8.216;2023-08-06T12:46:57;100132.72;;;23.08;96.20
1207;BME280;593;53.184;8.216;2023-08-06T12:49:22;100128.03;;;23.12;96.41
1207;BME280;593;53.184;8.216;2023-08-06T12:51:49;100123.31;;;23.16;95.41
1207;BME280;593;53.184;8.216;2023-08-06T12:54:16;100117.44;;;23.21;95.92
1207;BME280;593;53.184;8.216;2023-08-06T12:56:42;100118.63;;;23.23;95.33
1207;BME280;593;53.184;8.216;2023-08-06T12:59:07;100119.06;;;23.25;94.34
1207;BME280;593;53.184;8.216;2023-08-06T13:01:32;100119.47;;;23.27;93.92
1207;BME280;593;53.184;8.216;2023-08-06T13:03:59;100117.13;;;23.29;94.12
1207;BME280;593;53.184;8.216;2023-08-06T13:06:24;100121.53;;;23.34;95.18
1207;BME280;593;53.184;8.216;2023-08-06T13:08:49;100116.41;;;23.36;95.09
1207;BME280;593;53.184;8.216;2023-08-06T13:11:15;100122.38;;;23.38;94.36
1207;BME280;593;53.184;8.216;2023-08-06T13:13:40;100125.22;;;23.41;94.21
1207;BME280;593;53.184;8.216;2023-08-06T13:16:05;100123.25;;;23.42;93.49
1207;BME280;593;53.184;8.216;2023-08-06T13:18:31;100132.34;;;23.42;93.41
1207;BME280;593;53.184;8.216;2023-08-06T13:20:56;100129.19;;;23.44;92.76
1207;BME280;593;53.184;8.216;2023-08-06T13:23:21;100129.19;;;23.44;92.85